createdAt,value
2023-03-05T00:00:16.829Z,4.00
2023-03-05T00:02:45.169Z,4.03
2023-03-05T00:05:13.650Z,3.90
2023-03-05T00:07:41.850Z,4.04
2023-03-05T00:10:11.426Z,4.02
2023-03-05T00:12:39.648Z,4.11
2023-03-05T00:15:11.004Z,4.11
2023-03-05T00:17:39.215Z,4.17
2023-03-05T00:20:09.524Z,4.16
2023-03-05T00:22:37.871Z,4.07
2023-03-05T00:25:08.074Z,4.04
2023-03-05T00:27:36.458Z,4.17
2023-03-05T00:30:05.673Z,4.18
2023-03-05T00:32:36.240Z,4.14
2023-03-05T00:35:05.155Z,4.10
2023-03-05T00:37:33.898Z,4.04
2023-03-05T00:40:02.372Z,4.05
2023-03-05T00:42:30.540Z,4.19
2023-03-05T00:44:58.819Z,4.10
2023-03-05T00:47:28.307Z,4.07
2023-03-05T00:49:57.853Z,4.19
2023-03-05T00:52:26.364Z,4.23
2023-03-05T00:54:54.800Z,4.31
2023-03-05T00:57:23.183Z,4.42
2023-03-05T00:59:51.316Z,4.31
2023-03-05T01:02:19.507Z,4.31
2023-03-05T01:04:47.805Z,4.35
2023-03-05T01:07:18.093Z,4.28
2023-03-05T01:09:46.301Z,4.50
2023-03-05T01:12:14.557Z,4.48
2023-03-05T01:14:43.016Z,4.57
2023-03-05T01:17:11.291Z,4.43
2023-03-05T01:19:39.692Z,4.56
2023-03-05T01:22:09.998Z,4.51
2023-03-05T01:24:39.572Z,4.58
2023-03-05T01:27:07.943Z,4.45
2023-03-05T01:29:37.992Z,4.57
2023-03-05T01:32:06.848Z,4.19
2023-03-05T01:34:36.913Z,4.17
2023-03-05T01:37:05.557Z,4.46
2023-03-05T01:39:33.675Z,4.52
2023-03-05T01:42:03.466Z,4.28
2023-03-05T01:44:32.729Z,4.39
2023-03-05T01:47:01.423Z,4.40
2023-03-05T01:49:34.191Z,4.16
2023-03-05T01:52:07.802Z,3.96
2023-03-05T01:54:41.044Z,3.87
2023-03-05T01:57:13.580Z,3.84
2023-03-05T01:59:45.676Z,3.93
2023-03-05T02:02:15.062Z,4.14
2023-03-05T02:04:49.293Z,3.77
2023-03-05T02:07:19.076Z,3.69
2023-03-05T02:09:47.334Z,3.78
2023-03-05T02:12:17.311Z,3.82
2023-03-05T02:14:49.392Z,3.56
2023-03-05T02:17:18.054Z,3.71
2023-03-05T02:19:52.876Z,3.84
2023-03-05T02:22:25.531Z,3.77
2023-03-05T02:24:53.727Z,3.69
2023-03-05T02:27:34.706Z,3.73
2023-03-05T02:30:03.939Z,3.67
2023-03-05T02:32:32.130Z,3.63
2023-03-05T02:35:00.497Z,3.68
2023-03-05T02:37:30.860Z,3.77
2023-03-05T02:39:59.020Z,3.54
2023-03-05T02:42:27.495Z,3.60
2023-03-05T02:44:55.809Z,3.64
2023-03-05T02:47:24.065Z,3.70
2023-03-05T02:49:52.297Z,3.65
2023-03-05T02:52:20.547Z,3.72
2023-03-05T02:54:50.149Z,3.58
2023-03-05T02:57:19.064Z,3.62
2023-03-05T02:59:48.181Z,3.60
2023-03-05T03:02:17.255Z,3.55
2023-03-05T03:04:46.575Z,3.56
2023-03-05T03:07:15.907Z,3.68
2023-03-05T03:09:44.158Z,3.69
2023-03-05T03:12:13.820Z,3.69
2023-03-05T03:14:43.703Z,3.62
2023-03-05T03:17:14.638Z,3.66
2023-03-05T03:19:43.315Z,3.69
2023-03-05T03:22:14.168Z,3.51
2023-03-05T03:24:44.916Z,3.54
2023-03-05T03:27:14.402Z,3.46
2023-03-05T03:29:42.550Z,3.56
2023-03-05T03:32:10.698Z,3.60
2023-03-05T03:34:38.866Z,3.66
2023-03-05T03:37:08.405Z,3.52
2023-03-05T03:39:36.557Z,3.50
2023-03-05T03:42:05.444Z,3.57
2023-03-05T03:44:34.932Z,3.66
2023-03-05T03:47:03.165Z,3.47
2023-03-05T03:49:31.334Z,3.43
2023-03-05T03:51:59.613Z,3.47
2023-03-05T03:54:27.920Z,3.39
2023-03-05T03:56:56.303Z,3.56
2023-03-05T03:59:24.920Z,3.59
2023-03-05T04:01:54.613Z,3.84
2023-03-05T04:04:22.882Z,3.69
2023-03-05T04:06:51.001Z,3.69
2023-03-05T04:09:19.194Z,3.59
2023-03-05T04:11:47.375Z,3.57
2023-03-05T04:14:15.555Z,3.49
2023-03-05T04:16:43.829Z,3.39
2023-03-05T04:19:13.400Z,3.60
2023-03-05T04:21:41.651Z,3.38
2023-03-05T04:24:10.176Z,3.22
2023-03-05T04:26:38.455Z,3.22
2023-03-05T04:29:06.624Z,3.23
2023-03-05T04:31:34.975Z,3.31
2023-03-05T04:34:03.189Z,3.39
2023-03-05T04:36:32.713Z,3.22
2023-03-05T04:39:01.091Z,3.20
2023-03-05T04:41:29.222Z,3.20
2023-03-05T04:43:57.414Z,3.30
2023-03-05T04:46:25.664Z,3.46
2023-03-05T04:48:54.287Z,3.39
2023-03-05T04:51:22.422Z,3.18
2023-03-05T04:53:51.943Z,3.16
2023-03-05T04:56:20.167Z,3.26
2023-03-05T04:58:48.460Z,3.20
2023-03-05T05:01:17.207Z,3.40
2023-03-05T05:03:45.335Z,3.26
2023-03-05T05:06:13.542Z,3.38
2023-03-05T05:08:41.792Z,3.48
2023-03-05T05:11:15.363Z,3.66
2023-03-05T05:13:43.599Z,3.74
2023-03-05T05:16:11.848Z,3.53
2023-03-05T05:18:40.201Z,3.54
2023-03-05T05:21:10.292Z,3.63
2023-03-05T05:23:38.785Z,3.32
2023-03-05T05:26:14.105Z,3.48
2023-03-05T05:28:43.842Z,3.56
2023-03-05T05:31:14.863Z,3.58
2023-03-05T05:33:43.731Z,3.43
2023-03-05T05:36:15.142Z,3.37
2023-03-05T05:38:44.582Z,3.39
2023-03-05T05:41:17.221Z,3.28
2023-03-05T05:43:45.728Z,3.28
2023-03-05T05:46:17.023Z,3.20
2023-03-05T05:48:45.967Z,3.15
2023-03-05T05:51:16.448Z,3.15
2023-03-05T05:53:45.292Z,3.09
2023-03-05T05:56:16.750Z,2.94
2023-03-05T05:58:47.937Z,2.92
2023-03-05T06:01:19.668Z,2.95
2023-03-05T06:03:48.597Z,2.95
2023-03-05T06:06:19.047Z,3.11
2023-03-05T06:08:47.510Z,3.00
2023-03-05T06:11:19.325Z,3.19
2023-03-05T06:13:48.495Z,3.12
2023-03-05T06:16:21.230Z,3.35
2023-03-05T06:18:49.303Z,3.38
2023-03-05T06:21:20.956Z,3.33
2023-03-05T06:23:50.441Z,3.20
2023-03-05T06:26:22.130Z,3.24
2023-03-05T06:28:50.593Z,3.39
2023-03-05T06:31:21.824Z,3.17
2023-03-05T06:33:51.000Z,3.18
2023-03-05T06:36:22.525Z,3.05
2023-03-05T06:38:53.114Z,3.05
2023-03-05T06:41:26.166Z,2.98
2023-03-05T06:43:54.979Z,3.01
2023-03-05T06:46:26.827Z,3.16
2023-03-05T06:48:57.840Z,2.89
2023-03-05T06:51:28.940Z,3.01
2023-03-05T06:54:01.270Z,3.17
2023-03-05T06:56:31.163Z,3.22
2023-03-05T06:58:59.802Z,2.99
2023-03-05T07:01:28.045Z,3.13
2023-03-05T07:03:58.846Z,3.19
2023-03-05T07:06:28.482Z,3.05
2023-03-05T07:08:57.040Z,2.96
2023-03-05T07:11:26.294Z,2.98
2023-03-05T07:13:55.950Z,3.13
2023-03-05T07:16:27.761Z,3.17
2023-03-05T07:18:58.638Z,3.26
2023-03-05T07:21:29.669Z,3.15
2023-03-05T07:24:00.288Z,3.26
2023-03-05T07:26:30.766Z,3.35
2023-03-05T07:29:01.146Z,3.36
2023-03-05T07:31:31.583Z,3.25
2023-03-05T07:34:01.783Z,3.12
2023-03-05T07:36:30.602Z,3.53
2023-03-05T07:38:58.797Z,3.33
2023-03-05T07:41:28.861Z,3.41
2023-03-05T07:43:57.292Z,3.27
2023-03-05T07:46:30.224Z,3.51
2023-03-05T07:48:59.257Z,3.68
2023-03-05T07:51:28.678Z,3.57
2023-03-05T07:53:58.875Z,3.40
2023-03-05T07:56:31.663Z,3.44
2023-03-05T07:59:00.523Z,3.77
2023-03-05T08:01:30.504Z,3.73
2023-03-05T08:03:58.890Z,3.69
2023-03-05T08:06:27.132Z,3.57
2023-03-05T08:08:55.312Z,3.60
2023-03-05T08:11:23.542Z,3.67
2023-03-05T08:13:51.888Z,3.76
2023-03-05T08:16:25.770Z,3.84
2023-03-05T08:18:58.289Z,3.72
2023-03-05T08:21:29.282Z,3.48
2023-03-05T08:23:58.324Z,3.49
2023-03-05T08:26:30.278Z,3.51
2023-03-05T08:28:59.333Z,3.54
2023-03-05T08:31:30.131Z,3.64
2023-03-05T08:34:01.826Z,3.68
2023-03-05T08:36:30.674Z,3.44
2023-03-05T08:38:59.575Z,3.54
2023-03-05T08:41:27.923Z,3.38
2023-03-05T08:43:56.338Z,3.25
2023-03-05T08:46:24.876Z,3.43
2023-03-05T08:48:53.152Z,3.55
2023-03-05T08:51:26.054Z,3.63
2023-03-05T08:53:55.572Z,3.30
2023-03-05T08:56:23.860Z,3.64
2023-03-05T08:58:52.957Z,3.61
2023-03-05T09:01:22.476Z,3.78
2023-03-05T09:03:50.908Z,3.95
2023-03-05T09:06:19.192Z,3.72
2023-03-05T09:08:48.697Z,3.73
2023-03-05T09:11:18.160Z,3.83
2023-03-05T09:13:46.785Z,4.15
2023-03-05T09:16:18.423Z,4.20
2023-03-05T09:18:47.148Z,4.21
2023-03-05T09:21:21.868Z,4.25
2023-03-05T09:23:51.509Z,4.51
2023-03-05T09:26:20.588Z,4.12
2023-03-05T09:28:51.979Z,4.05
2023-03-05T09:31:20.738Z,3.91
2023-03-05T09:33:50.118Z,4.07
2023-03-05T09:36:21.753Z,4.03
2023-03-05T09:38:51.968Z,4.32
2023-03-05T09:41:34.567Z,4.37
2023-03-05T09:44:12.908Z,4.27
2023-03-05T09:46:53.226Z,4.60
2023-03-05T09:49:34.227Z,4.10
2023-03-05T09:52:11.705Z,4.23
2023-03-05T09:54:46.184Z,4.17
2023-03-05T09:57:20.063Z,4.00
2023-03-05T09:59:53.386Z,3.90
2023-03-05T10:02:27.601Z,4.16
2023-03-05T10:05:04.802Z,3.84
2023-03-05T10:07:35.675Z,3.57
2023-03-05T10:10:14.128Z,3.59
2023-03-05T10:12:44.489Z,3.68
2023-03-05T10:15:16.910Z,3.60
2023-03-05T10:18:00.072Z,3.41
2023-03-05T10:20:52.846Z,3.41
2023-03-05T10:23:52.423Z,3.55
2023-03-05T10:26:36.415Z,3.45
2023-03-05T10:29:20.230Z,3.64
2023-03-05T10:32:07.910Z,3.69
2023-03-05T10:35:13.878Z,4.05
2023-03-05T10:38:32.463Z,4.05
2023-03-05T10:41:05.531Z,4.12
2023-03-05T10:43:41.472Z,4.15
2023-03-05T10:46:17.515Z,4.16
2023-03-05T10:48:52.262Z,4.15
2023-03-05T10:51:24.106Z,4.41
2023-03-05T10:53:57.719Z,4.47
2023-03-05T10:56:28.717Z,4.45
2023-03-05T10:58:58.904Z,4.54
2023-03-05T11:01:31.505Z,4.58
2023-03-05T11:04:03.533Z,4.76
2023-03-05T11:06:39.849Z,4.79
2023-03-05T11:09:24.105Z,4.85
2023-03-05T11:12:15.890Z,4.92
2023-03-05T11:14:48.831Z,4.76
2023-03-05T11:17:31.462Z,4.69
2023-03-05T11:20:34.738Z,4.81
2023-03-05T11:23:10.519Z,4.71
2023-03-05T11:25:58.102Z,4.77
2023-03-05T11:28:33.593Z,4.63
2023-03-05T11:31:08.413Z,4.68
2023-03-05T11:33:38.771Z,4.76
2023-03-05T11:36:27.019Z,4.57
2023-03-05T11:39:00.714Z,4.86
2023-03-05T11:41:35.688Z,4.67
2023-03-05T11:44:13.307Z,4.50
2023-03-05T11:46:47.863Z,4.69
2023-03-05T11:49:21.039Z,4.55
2023-03-05T11:51:59.112Z,4.61
2023-03-05T11:54:34.478Z,4.63
2023-03-05T11:57:04.770Z,4.71
2023-03-05T11:59:39.570Z,4.95
2023-03-05T12:02:19.952Z,4.77
2023-03-05T12:04:49.778Z,4.73
2023-03-05T12:07:23.274Z,4.82
2023-03-05T12:09:54.588Z,4.99
2023-03-05T12:12:42.080Z,5.35
2023-03-05T12:16:13.535Z,5.45
2023-03-05T12:18:58.230Z,5.35
2023-03-05T12:21:36.732Z,5.37
2023-03-05T12:24:35.442Z,5.08
2023-03-05T12:27:16.016Z,5.30
2023-03-05T12:29:50.436Z,5.06
2023-03-05T12:33:02.113Z,4.94
2023-03-05T12:35:39.625Z,5.23
2023-03-05T12:38:39.677Z,5.19
2023-03-05T12:41:37.437Z,5.31
2023-03-05T12:44:24.066Z,5.28
2023-03-05T12:47:19.274Z,5.21
2023-03-05T12:49:50.812Z,5.17
2023-03-05T12:52:27.312Z,5.12
2023-03-05T12:55:20.142Z,5.24
2023-03-05T12:57:59.416Z,5.04
2023-03-05T13:00:44.259Z,5.00
2023-03-05T13:03:18.428Z,4.95
2023-03-05T13:05:52.057Z,5.13
2023-03-05T13:08:24.654Z,4.88
2023-03-05T13:10:54.936Z,5.04
2023-03-05T13:13:25.460Z,5.09
2023-03-05T13:15:55.267Z,4.91
2023-03-05T13:18:26.904Z,4.89
2023-03-05T13:21:04.481Z,4.86
2023-03-05T13:23:34.186Z,4.64
2023-03-05T13:26:15.469Z,4.80
2023-03-05T13:28:44.996Z,4.89
2023-03-05T13:31:18.429Z,4.92
2023-03-05T13:33:56.696Z,5.04
2023-03-05T13:36:27.922Z,5.13
2023-03-05T13:38:56.529Z,5.28
2023-03-05T13:41:27.128Z,4.95
2023-03-05T13:43:58.085Z,4.99
2023-03-05T13:46:33.940Z,4.96
2023-03-05T13:49:22.966Z,5.06
2023-03-05T13:51:53.638Z,4.96
2023-03-05T13:54:23.884Z,4.98
2023-03-05T13:56:58.753Z,5.21
2023-03-05T13:59:29.588Z,5.21
2023-03-05T14:02:00.771Z,5.19
2023-03-05T14:04:31.331Z,5.16
2023-03-05T14:07:03.394Z,5.03
2023-03-05T14:09:33.382Z,5.28
2023-03-05T14:12:04.832Z,5.12
2023-03-05T14:14:38.116Z,5.03
2023-03-05T14:17:41.806Z,5.22
2023-03-05T14:20:23.681Z,5.40
2023-03-05T14:22:54.403Z,5.22
2023-03-05T14:25:34.843Z,4.92
2023-03-05T14:28:04.527Z,4.72
2023-03-05T14:30:36.017Z,4.91
2023-03-05T14:33:06.105Z,4.97
2023-03-05T14:35:34.437Z,5.08
2023-03-05T14:38:02.773Z,4.77
2023-03-05T14:40:33.721Z,4.89
2023-03-05T14:43:03.956Z,4.84
2023-03-05T14:45:34.840Z,4.78
2023-03-05T14:48:07.073Z,4.91
2023-03-05T14:50:38.811Z,4.54
2023-03-05T14:53:14.198Z,4.60
2023-03-05T14:55:43.705Z,4.92
2023-03-05T14:58:15.013Z,4.88
2023-03-05T15:00:44.844Z,4.84
2023-03-05T15:03:16.147Z,4.89
2023-03-05T15:05:46.001Z,4.53
2023-03-05T15:08:18.145Z,4.63
2023-03-05T15:10:46.397Z,4.90
2023-03-05T15:13:16.099Z,4.72
2023-03-05T15:15:45.992Z,4.80
2023-03-05T15:18:18.225Z,4.64
2023-03-05T15:20:48.696Z,4.71
2023-03-05T15:23:17.937Z,4.81
2023-03-05T15:25:46.076Z,4.87
2023-03-05T15:28:14.350Z,5.05
2023-03-05T15:30:46.277Z,5.19
2023-03-05T15:33:18.163Z,4.92
2023-03-05T15:35:46.493Z,4.98
2023-03-05T15:38:15.265Z,4.88
2023-03-05T15:40:44.274Z,5.00
2023-03-05T15:43:12.584Z,4.94
2023-03-05T15:45:40.942Z,5.15
2023-03-05T15:48:09.391Z,4.88
2023-03-05T15:50:43.048Z,5.00
2023-03-05T15:53:15.571Z,4.84
2023-03-05T15:55:46.203Z,4.89
2023-03-05T15:58:17.492Z,4.83
2023-03-05T16:00:47.343Z,4.66
2023-03-05T16:03:15.670Z,4.66
2023-03-05T16:05:45.475Z,4.88
2023-03-05T16:08:13.760Z,4.92
2023-03-05T16:10:42.309Z,4.84
2023-03-05T16:13:15.459Z,4.68
2023-03-05T16:15:44.215Z,4.75
2023-03-05T16:18:16.637Z,4.71
2023-03-05T16:20:47.575Z,4.74
2023-03-05T16:23:15.990Z,4.38
2023-03-05T16:25:44.288Z,4.59
2023-03-05T16:28:12.551Z,4.56
2023-03-05T16:30:40.964Z,4.50
2023-03-05T16:33:09.796Z,4.31
2023-03-05T16:35:37.892Z,4.24
2023-03-05T16:38:08.373Z,4.23
2023-03-05T16:41:06.093Z,4.39
2023-03-05T16:43:27.216Z,4.35
2023-03-05T16:45:55.422Z,4.47
2023-03-05T16:48:23.801Z,4.28
2023-03-05T16:50:52.045Z,4.38
2023-03-05T16:53:21.539Z,4.34
2023-03-05T16:55:49.842Z,4.19
2023-03-05T16:58:18.119Z,4.19
2023-03-05T17:00:46.655Z,4.13
2023-03-05T17:03:15.394Z,4.01
2023-03-05T17:05:43.925Z,4.13
2023-03-05T17:08:12.126Z,4.02
2023-03-05T17:10:44.610Z,3.83
2023-03-05T17:13:12.933Z,3.93
2023-03-05T17:18:09.985Z,3.82
2023-03-05T17:20:38.218Z,3.90
2023-03-05T17:23:06.444Z,3.98
2023-03-05T17:25:34.961Z,3.92
2023-03-05T17:28:04.666Z,3.78
2023-03-05T17:30:33.359Z,3.57
2023-03-05T17:33:01.664Z,3.63
2023-03-05T17:35:29.905Z,3.79
2023-03-05T17:37:58.227Z,3.77
2023-03-05T17:40:26.922Z,3.27
2023-03-05T17:42:55.055Z,3.53
2023-03-05T17:45:24.674Z,3.48
2023-03-05T17:47:53.845Z,3.69
2023-03-05T17:50:22.725Z,3.62
2023-03-05T17:52:50.969Z,3.67
2023-03-05T17:55:20.120Z,3.67
2023-03-05T17:57:48.312Z,3.58
2023-03-05T18:00:22.531Z,3.62
2023-03-05T18:02:53.116Z,3.49
2023-03-05T18:05:23.533Z,3.47
2023-03-05T18:07:52.809Z,3.38
2023-03-05T18:10:23.209Z,3.31
2023-03-05T18:12:52.228Z,3.15
2023-03-05T18:15:23.247Z,3.01
2023-03-05T18:17:53.779Z,3.04
2023-03-05T18:20:30.553Z,3.20
2023-03-05T18:23:00.916Z,3.29
2023-03-05T18:25:31.343Z,2.97
2023-03-05T18:28:00.821Z,3.13
2023-03-05T18:30:30.250Z,3.02
2023-03-05T18:33:00.276Z,2.70
2023-03-05T18:35:29.729Z,2.77
2023-03-05T18:37:58.361Z,2.66
2023-03-05T18:40:29.616Z,2.78
2023-03-05T18:43:01.536Z,2.78
2023-03-05T18:45:31.167Z,2.81
2023-03-05T18:48:00.783Z,2.95
2023-03-05T18:50:30.321Z,2.98
2023-03-05T18:52:58.871Z,2.66
2023-03-05T18:55:33.389Z,2.89
2023-03-05T18:58:02.935Z,3.04
2023-03-05T19:00:33.292Z,2.98
2023-03-05T19:03:03.459Z,3.03
2023-03-05T19:05:32.151Z,3.19
2023-03-05T19:08:01.306Z,3.17
2023-03-05T19:10:29.608Z,3.15
2023-03-05T19:13:07.914Z,3.03
2023-03-05T19:15:36.144Z,3.08
2023-03-05T19:18:05.711Z,3.03
2023-03-05T19:20:33.962Z,2.95
2023-03-05T19:23:02.113Z,2.83
2023-03-05T19:25:30.487Z,2.94
2023-03-05T19:27:58.995Z,3.08
2023-03-05T19:30:27.890Z,3.23
2023-03-05T19:32:59.141Z,2.99
2023-03-05T19:35:33.275Z,3.09
2023-03-05T19:38:01.635Z,2.89
2023-03-05T19:40:30.310Z,2.84
2023-03-05T19:43:01.854Z,2.99
2023-03-05T19:45:34.153Z,2.87
2023-03-05T19:48:02.825Z,2.88
2023-03-05T19:50:34.470Z,2.90
2023-03-05T19:53:03.013Z,2.83
2023-03-05T19:55:31.711Z,2.88
2023-03-05T19:58:02.028Z,3.16
2023-03-05T20:00:30.513Z,3.05
2023-03-05T20:02:59.292Z,3.00
2023-03-05T20:05:27.650Z,3.03
2023-03-05T20:07:57.638Z,2.98
2023-03-05T20:10:26.236Z,2.98
2023-03-05T20:12:54.636Z,3.09
2023-03-05T20:15:23.484Z,3.21
2023-03-05T20:17:54.032Z,3.38
2023-03-05T20:20:22.307Z,3.07
2023-03-05T20:22:50.587Z,2.93
2023-03-05T20:25:24.709Z,3.13
2023-03-05T20:27:54.796Z,2.99
2023-03-05T20:30:23.361Z,3.21
2023-03-05T20:32:51.831Z,3.01
2023-03-05T20:35:20.419Z,3.11
2023-03-05T20:38:00.145Z,3.04
2023-03-05T20:40:29.992Z,3.17
2023-03-05T20:42:58.273Z,3.00
2023-03-05T20:45:26.595Z,2.96
2023-03-05T20:47:55.215Z,3.06
2023-03-05T20:50:23.599Z,2.97
2023-03-05T20:52:51.814Z,3.02
2023-03-05T20:55:20.160Z,3.05
2023-03-05T20:57:52.695Z,3.10
2023-03-05T21:00:21.409Z,2.92
2023-03-05T21:02:51.557Z,2.91
2023-03-05T21:05:21.954Z,2.99
2023-03-05T21:07:50.639Z,2.93
2023-03-05T21:10:20.242Z,2.93
2023-03-05T21:12:51.633Z,2.87
2023-03-05T21:15:22.862Z,3.02
2023-03-05T21:17:51.183Z,2.84
2023-03-05T21:20:22.467Z,2.82
2023-03-05T21:22:50.680Z,2.88
2023-03-05T21:25:23.154Z,2.91
2023-03-05T21:27:57.336Z,2.91
2023-03-05T21:30:31.471Z,2.92
2023-03-05T21:33:01.179Z,2.92
2023-03-05T21:35:30.133Z,2.76
2023-03-05T21:37:58.364Z,2.74
2023-03-05T21:40:26.788Z,2.77
2023-03-05T21:42:56.929Z,2.65
2023-03-05T21:45:28.536Z,2.35
2023-03-05T21:47:58.649Z,2.12
2023-03-05T21:50:27.508Z,1.70
2023-03-05T21:52:56.062Z,1.39
2023-03-05T21:55:32.261Z,1.37
2023-03-05T21:58:02.329Z,1.58
2023-03-05T22:00:30.641Z,1.75
2023-03-05T22:02:58.777Z,1.87
2023-03-05T22:05:26.975Z,2.09
2023-03-05T22:07:56.578Z,2.13
2023-03-05T22:10:25.389Z,2.19
2023-03-05T22:13:03.243Z,2.27
2023-03-05T22:15:33.172Z,2.12
2023-03-05T22:18:01.792Z,2.22
2023-03-05T22:20:30.160Z,2.16
2023-03-05T22:22:58.490Z,2.20
2023-03-05T22:25:26.877Z,2.26
2023-03-05T22:27:55.543Z,2.39
2023-03-05T22:30:24.228Z,2.28
2023-03-05T22:32:55.000Z,2.24
2023-03-05T22:35:23.544Z,2.45
2023-03-05T22:37:51.780Z,2.44
2023-03-05T22:40:21.390Z,2.43
2023-03-05T22:42:50.185Z,2.37
2023-03-05T22:45:19.882Z,2.33
2023-03-05T22:47:50.458Z,2.25
2023-03-05T22:50:21.093Z,2.42
2023-03-05T22:52:49.340Z,2.32
2023-03-05T22:55:18.156Z,2.44
2023-03-05T22:57:46.513Z,2.36
2023-03-05T23:00:18.682Z,2.22
2023-03-05T23:02:47.589Z,2.29
2023-03-05T23:05:16.111Z,2.43
2023-03-05T23:07:47.122Z,2.24
2023-03-05T23:10:19.476Z,2.33
2023-03-05T23:12:51.968Z,2.31
2023-03-05T23:15:24.927Z,2.29
2023-03-05T23:17:53.342Z,2.09
2023-03-05T23:20:25.088Z,2.13
2023-03-05T23:22:56.179Z,2.18
2023-03-05T23:25:27.351Z,2.08
2023-03-05T23:27:57.837Z,2.15
2023-03-05T23:30:28.894Z,2.22
2023-03-05T23:33:00.406Z,2.06
2023-03-05T23:35:31.073Z,2.09
2023-03-05T23:38:02.773Z,2.03
2023-03-05T23:40:34.256Z,2.00
2023-03-05T23:43:02.961Z,1.95
2023-03-05T23:45:31.599Z,2.02
2023-03-05T23:48:00.347Z,2.13
2023-03-05T23:50:30.887Z,2.04
2023-03-05T23:53:02.232Z,2.20
2023-03-05T23:55:34.620Z,2.30
2023-03-05T23:58:03.319Z,2.09
